Time;durP1;ratioP1;P1;durP2;ratioP2;P2;SDS_P1;SDS_P2;PMS_P1;PMS_P2;Temp;Humidity;BMP_temperature;BMP_pressure;BME280_temperature;BME280_humidity;BME280_pressure;Samples;Min_cycle;Max_cycle;Signal;HPM_P1;HPM_P2
2023/12/07 00:00:29;;;;;;;0.50;0.50;;;2.10;99.90;;;;;;4431302;32;20127;-60
2023/12/07 00:02:54;;;;;;;0.65;0.65;;;2.10;99.90;;;;;;4429509;32;20069;-59
2023/12/07 00:05:20;;;;;;;0.90;0.90;;;2.10;99.90;;;;;;4429897;32;20077;-59
2023/12/07 00:07:45;;;;;;;0.40;0.40;;;2.10;99.90;;;;;;4428325;32;20062;-59
2023/12/07 00:10:11;;;;;;;0.90;0.80;;;2.10;99.90;;;;;;4431153;32;20090;-60
2023/12/07 00:12:36;;;;;;;0.93;0.93;;;2.10;99.90;;;;;;4428159;32;20066;-59
2023/12/07 00:15:02;;;;;;;0.88;0.88;;;2.10;99.90;;;;;;4429502;32;20080;-59
2023/12/07 00:17:28;;;;;;;0.85;0.85;;;2.20;99.90;;;;;;4428864;32;20361;-58
2023/12/07 00:19:53;;;;;;;0.50;0.50;;;2.20;99.90;;;;;;4429202;32;21140;-60
2023/12/07 00:22:20;;;;;;;3.42;1.67;;;2.10;99.90;;;;;;4433070;32;20513;-60
2023/12/07 00:24:45;;;;;;;0.60;0.60;;;2.10;99.90;;;;;;4432126;32;20115;-58
2023/12/07 00:27:10;;;;;;;0.60;0.60;;;2.20;99.90;;;;;;4432160;32;20123;-57
2023/12/07 00:29:38;;;;;;;1.95;1.10;;;2.20;99.90;;;;;;4423696;32;20185;-58
2023/12/07 00:32:04;;;;;;;19.62;1.08;;;2.20;99.90;;;;;;4420975;32;20090;-59
2023/12/07 00:34:30;;;;;;;0.50;0.50;;;2.20;99.90;;;;;;4428123;32;20077;-59
2023/12/07 00:36:55;;;;;;;2.97;1.27;;;2.20;99.90;;;;;;4429916;32;20148;-59
2023/12/07 00:39:21;;;;;;;1.58;1.02;;;2.20;99.90;;;;;;4425852;32;20081;-59
2023/12/07 00:41:47;;;;;;;0.45;0.45;;;2.20;99.90;;;;;;4427546;32;20085;-59
2023/12/07 00:44:13;;;;;;;0.52;0.52;;;2.00;99.90;;;;;;4431181;32;20516;-58
2023/12/07 00:46:40;;;;;;;0.70;0.70;;;1.90;99.90;;;;;;4427114;32;20069;-57
2023/12/07 00:49:05;;;;;;;0.55;0.55;;;1.90;99.90;;;;;;4429677;32;20069;-59
2023/12/07 00:51:30;;;;;;;0.70;0.70;;;2.00;99.90;;;;;;4427548;32;20073;-60
2023/12/07 00:53:56;;;;;;;0.40;0.40;;;2.00;99.90;;;;;;4433121;32;20110;-58
2023/12/07 00:56:21;;;;;;;0.50;0.50;;;2.00;99.90;;;;;;4431227;32;20068;-58
2023/12/07 00:58:47;;;;;;;0.40;0.40;;;2.00;99.90;;;;;;4430033;32;20086;-55
2023/12/07 01:01:12;;;;;;;0.30;0.30;;;2.10;99.90;;;;;;4432971;32;20107;-59
2023/12/07 01:03:40;;;;;;;0.88;0.88;;;2.20;99.90;;;;;;4429840;32;20587;-60
2023/12/07 01:06:06;;;;;;;0.60;0.60;;;2.20;99.90;;;;;;4434647;32;20433;-59
2023/12/07 01:08:31;;;;;;;0.73;0.73;;;2.00;99.90;;;;;;4428411;32;20597;-59
2023/12/07 01:10:57;;;;;;;1.10;0.60;;;1.90;99.90;;;;;;4429248;32;20132;-58
2023/12/07 01:13:23;;;;;;;0.32;0.32;;;1.90;99.90;;;;;;4426169;32;20077;-60
2023/12/07 01:15:49;;;;;;;0.50;0.50;;;2.00;99.90;;;;;;4428919;32;20053;-59
2023/12/07 01:18:14;;;;;;;0.40;0.40;;;1.90;99.90;;;;;;4430961;32;20081;-57
2023/12/07 01:20:40;;;;;;;1.02;0.73;;;1.90;99.90;;;;;;4432629;32;20070;-59
2023/12/07 01:23:05;;;;;;;0.50;0.50;;;2.00;99.90;;;;;;4427581;32;20357;-58
2023/12/07 01:25:31;;;;;;;0.30;0.30;;;2.10;99.90;;;;;;4432504;32;20061;-60
2023/12/07 01:27:56;;;;;;;1.27;0.95;;;2.00;99.90;;;;;;4429126;32;20066;-60
2023/12/07 01:30:22;;;;;;;0.68;0.68;;;1.90;99.90;;;;;;4430055;32;20054;-59
2023/12/07 01:32:47;;;;;;;0.50;0.50;;;2.00;99.90;;;;;;4430788;32;20754;-59
2023/12/07 01:35:13;;;;;;;0.57;0.57;;;2.00;99.90;;;;;;4431352;32;20076;-59
2023/12/07 01:37:38;;;;;;;0.40;0.40;;;2.00;99.90;;;;;;4428214;32;20074;-59
2023/12/07 01:40:09;;;;;;;0.37;0.37;;;2.00;99.90;;;;;;4428159;32;20516;-59
2023/12/07 01:42:34;;;;;;;0.40;0.40;;;2.10;99.90;;;;;;4430704;32;20430;-59
2023/12/07 01:45:00;;;;;;;1.10;0.93;;;2.10;99.90;;;;;;4432888;32;20086;-58
2023/12/07 01:47:26;;;;;;;0.52;0.52;;;2.10;99.90;;;;;;4428857;32;20427;-58
2023/12/07 01:49:52;;;;;;;0.60;0.60;;;2.10;99.90;;;;;;4429357;32;20070;-58
2023/12/07 01:52:18;;;;;;;0.50;0.50;;;2.10;99.90;;;;;;4429155;32;20077;-58
2023/12/07 01:54:44;;;;;;;0.60;0.60;;;2.10;99.90;;;;;;4429209;32;20529;-59
2023/12/07 01:57:09;;;;;;;0.57;0.57;;;2.10;99.90;;;;;;4429208;32;20066;-57
2023/12/07 01:59:35;;;;;;;0.47;0.47;;;2.10;99.90;;;;;;4432373;32;20077;-60
2023/12/07 02:02:00;;;;;;;0.50;0.50;;;2.10;99.90;;;;;;4424403;32;20065;-59
2023/12/07 02:04:26;;;;;;;0.60;0.60;;;2.00;99.90;;;;;;4431838;32;20261;-58
2023/12/07 02:06:56;;;;;;;0.32;0.32;;;2.10;99.90;;;;;;4430869;32;20062;-58
2023/12/07 02:09:22;;;;;;;0.50;0.50;;;2.10;99.90;;;;;;4427923;32;20062;-57
2023/12/07 02:11:47;;;;;;;6.18;1.67;;;2.10;99.90;;;;;;4430314;32;20085;-58
2023/12/07 02:14:13;;;;;;;2.95;1.17;;;2.00;99.90;;;;;;4427751;32;20134;-59
2023/12/07 02:16:47;;;;;;;0.68;0.68;;;2.00;99.90;;;;;;4428255;32;20062;-58
2023/12/07 02:19:33;;;;;;;0.57;0.57;;;2.00;99.90;;;;;;4429822;32;20069;-59
2023/12/07 02:22:04;;;;;;;0.57;0.57;;;2.10;99.90;;;;;;4428196;32;20505;-56
2023/12/07 02:24:33;;;;;;;3.60;1.30;;;2.00;99.90;;;;;;4416107;32;20081;-58
2023/12/07 02:26:59;;;;;;;0.40;0.40;;;2.00;99.90;;;;;;4429351;32;20984;-60
2023/12/07 02:29:24;;;;;;;0.40;0.40;;;2.10;99.90;;;;;;4428815;32;20080;-60
2023/12/07 02:31:50;;;;;;;0.40;0.40;;;2.10;99.90;;;;;;4427664;32;20089;-58
2023/12/07 02:34:15;;;;;;;0.80;0.80;;;2.10;99.90;;;;;;4424710;32;20128;-59
2023/12/07 02:36:44;;;;;;;0.40;0.40;;;2.10;99.90;;;;;;4427237;32;20085;-58
2023/12/07 02:39:12;;;;;;;0.60;0.60;;;2.10;99.90;;;;;;4424860;32;20127;-58
2023/12/07 02:41:39;;;;;;;0.45;0.45;;;2.20;99.90;;;;;;4427226;32;20575;-58
2023/12/07 02:44:05;;;;;;;0.85;0.85;;;2.20;99.90;;;;;;4427878;32;20065;-57
2023/12/07 02:46:30;;;;;;;1.45;1.12;;;2.20;99.90;;;;;;4429363;32;20053;-59
2023/12/07 02:48:58;;;;;;;0.60;0.60;;;2.20;99.90;;;;;;4427057;32;20603;-59
2023/12/07 02:51:23;;;;;;;2.05;0.62;;;2.10;99.90;;;;;;4430716;32;20065;-60
2023/12/07 02:53:49;;;;;;;0.60;0.60;;;2.20;99.90;;;;;;4427530;32;20085;-58
2023/12/07 02:56:14;;;;;;;2.83;1.30;;;2.20;99.90;;;;;;4431332;32;20058;-59
2023/12/07 02:58:40;;;;;;;0.55;0.55;;;2.10;99.90;;;;;;4428774;32;20439;-59
2023/12/07 03:01:05;;;;;;;0.50;0.50;;;2.10;99.90;;;;;;4427256;32;20066;-58
2023/12/07 03:03:31;;;;;;;0.40;0.40;;;2.20;99.90;;;;;;4430120;32;20073;-58
2023/12/07 03:05:56;;;;;;;0.70;0.70;;;2.10;99.90;;;;;;4425754;32;20073;-59
2023/12/07 03:08:22;;;;;;;1.85;1.40;;;2.10;99.90;;;;;;4428456;32;20085;-58
2023/12/07 03:10:47;;;;;;;1.85;1.08;;;2.10;99.90;;;;;;4430480;32;20611;-58
2023/12/07 03:13:13;;;;;;;0.57;0.57;;;2.10;99.90;;;;;;4426809;32;20128;-59
2023/12/07 03:15:39;;;;;;;2.15;0.77;;;2.10;99.90;;;;;;4428066;32;20483;-59
2023/12/07 03:18:05;;;;;;;0.62;0.62;;;2.10;99.90;;;;;;4430654;32;20108;-60
2023/12/07 03:20:31;;;;;;;0.43;0.43;;;2.10;99.90;;;;;;4428108;32;20085;-60
2023/12/07 03:22:56;;;;;;;0.98;0.88;;;2.10;99.90;;;;;;4427378;32;21108;-59
2023/12/07 03:25:22;;;;;;;0.93;0.90;;;2.10;99.90;;;;;;4427583;32;20068;-59
2023/12/07 03:27:47;;;;;;;0.40;0.40;;;2.10;99.90;;;;;;4427155;32;20081;-58
2023/12/07 03:30:13;;;;;;;2.47;1.00;;;2.10;99.90;;;;;;4427177;32;20065;-59
2023/12/07 03:32:38;;;;;;;0.40;0.40;;;2.00;99.90;;;;;;4425061;32;20060;-59
2023/12/07 03:35:04;;;;;;;0.62;0.62;;;2.00;99.90;;;;;;4425838;32;20097;-60
2023/12/07 03:37:30;;;;;;;0.43;0.43;;;2.00;99.90;;;;;;4423616;32;21232;-59
2023/12/07 03:39:55;;;;;;;0.52;0.52;;;2.00;99.90;;;;;;4423842;32;20068;-61
2023/12/07 03:42:20;;;;;;;0.55;0.55;;;2.00;99.90;;;;;;4427405;32;20062;-60
2023/12/07 03:44:46;;;;;;;0.60;0.60;;;2.00;99.90;;;;;;4428905;32;20539;-60
2023/12/07 03:47:11;;;;;;;0.50;0.50;;;2.00;99.90;;;;;;4429087;32;20065;-58
2023/12/07 03:49:38;;;;;;;0.60;0.60;;;2.10;99.90;;;;;;4431987;32;20193;-59
2023/12/07 03:52:04;;;;;;;0.73;0.73;;;2.10;99.90;;;;;;4427927;32;21191;-57
2023/12/07 03:54:30;;;;;;;0.40;0.40;;;2.10;99.90;;;;;;4428648;32;20085;-60
2023/12/07 03:56:55;;;;;;;6.45;1.45;;;2.10;99.90;;;;;;4428255;32;20137;-59
2023/12/07 03:59:20;;;;;;;0.30;0.30;;;2.10;99.90;;;;;;4428899;32;20049;-58
2023/12/07 04:01:46;;;;;;;1.02;0.98;;;2.10;99.90;;;;;;4430481;32;20180;-59
2023/12/07 04:04:11;;;;;;;0.88;0.88;;;2.00;99.90;;;;;;4427277;32;20497;-58
2023/12/07 04:06:37;;;;;;;0.37;0.37;;;2.00;99.90;;;;;;4428169;32;20065;-59
2023/12/07 04:09:04;;;;;;;0.60;0.60;;;2.00;99.90;;;;;;4425772;32;20106;-59
2023/12/07 04:11:29;;;;;;;0.40;0.40;;;2.00;99.90;;;;;;4429232;32;20074;-59
2023/12/07 04:13:55;;;;;;;0.77;0.77;;;2.10;99.90;;;;;;4428147;32;20065;-58
2023/12/07 04:16:20;;;;;;;1.85;1.60;;;2.10;99.90;;;;;;4429270;32;20143;-58
2023/12/07 04:18:46;;;;;;;0.65;0.65;;;2.10;99.90;;;;;;4431770;32;20623;-60
2023/12/07 04:21:11;;;;;;;0.40;0.40;;;2.10;99.90;;;;;;4431361;32;20078;-59
2023/12/07 04:23:37;;;;;;;0.40;0.40;;;2.20;99.90;;;;;;4430436;32;20057;-58
2023/12/07 04:26:03;;;;;;;4.57;1.40;;;2.20;99.90;;;;;;4430639;32;20061;-59
2023/12/07 04:28:28;;;;;;;0.75;0.65;;;2.20;99.90;;;;;;4430488;32;20135;-60
2023/12/07 04:30:54;;;;;;;0.77;0.77;;;2.30;99.90;;;;;;4429210;32;20147;-58
2023/12/07 04:33:19;;;;;;;0.55;0.55;;;2.30;99.90;;;;;;4427252;32;20073;-60
2023/12/07 04:35:45;;;;;;;0.85;0.57;;;2.20;99.90;;;;;;4429299;32;20460;-59
2023/12/07 04:38:10;;;;;;;1.75;0.90;;;2.20;99.90;;;;;;4429614;32;20382;-58
2023/12/07 04:40:36;;;;;;;0.40;0.40;;;2.20;99.90;;;;;;4430161;32;20074;-59
2023/12/07 04:43:01;;;;;;;0.43;0.43;;;2.20;99.90;;;;;;4429603;32;20172;-60
2023/12/07 04:45:26;;;;;;;1.45;1.02;;;2.20;99.90;;;;;;4429405;32;20378;-58
2023/12/07 04:47:52;;;;;;;0.50;0.50;;;2.20;99.90;;;;;;4429581;32;20070;-59
2023/12/07 04:50:17;;;;;;;0.60;0.60;;;2.20;99.90;;;;;;4429818;32;20077;-57
2023/12/07 04:52:43;;;;;;;1.17;1.10;;;2.20;99.90;;;;;;4427940;32;20086;-59
2023/12/07 04:55:08;;;;;;;2.17;1.25;;;2.20;99.90;;;;;;4428703;32;20101;-60
2023/12/07 04:57:35;;;;;;;0.77;0.77;;;2.20;99.90;;;;;;4429002;32;20067;-59
2023/12/07 05:00:05;;;;;;;3.40;1.02;;;2.10;99.90;;;;;;4427774;32;20058;-60
2023/12/07 05:02:31;;;;;;;0.68;0.68;;;2.10;99.90;;;;;;4429203;32;20056;-59
2023/12/07 05:04:57;;;;;;;1.20;1.12;;;2.10;99.90;;;;;;4428005;32;20072;-58
2023/12/07 05:07:23;;;;;;;0.90;0.90;;;2.10;99.90;;;;;;4430213;32;20124;-59
2023/12/07 05:09:50;;;;;;;1.05;1.00;;;2.10;99.90;;;;;;4427691;32;20065;-58
2023/12/07 05:12:16;;;;;;;1.77;1.12;;;2.20;99.90;;;;;;4429527;32;20065;-58
2023/12/07 05:14:41;;;;;;;0.40;0.40;;;2.10;99.90;;;;;;4426345;32;20575;-59
2023/12/07 05:17:07;;;;;;;0.55;0.55;;;2.00;99.90;;;;;;4429522;32;20505;-58
2023/12/07 05:19:32;;;;;;;0.50;0.50;;;2.10;99.90;;;;;;4428878;32;20077;-58
2023/12/07 05:21:58;;;;;;;1.25;0.80;;;2.00;99.90;;;;;;4426254;32;20073;-60
2023/12/07 05:24:23;;;;;;;2.08;1.20;;;2.10;99.90;;;;;;4430035;32;20081;-58
2023/12/07 05:26:49;;;;;;;0.32;0.32;;;2.20;99.90;;;;;;4431182;32;20406;-59
2023/12/07 05:29:14;;;;;;;0.55;0.55;;;2.20;99.90;;;;;;4430137;32;20077;-58
2023/12/07 05:31:40;;;;;;;0.60;0.60;;;2.20;99.90;;;;;;4427363;32;20069;-59
2023/12/07 05:34:07;;;;;;;0.62;0.62;;;2.20;99.90;;;;;;4421373;32;20432;-59
2023/12/07 05:36:33;;;;;;;0.50;0.50;;;2.30;99.90;;;;;;4427264;32;20069;-59
2023/12/07 05:38:58;;;;;;;1.80;1.02;;;2.20;99.90;;;;;;4429249;32;20425;-59
2023/12/07 05:41:25;;;;;;;3.00;1.35;;;2.20;99.90;;;;;;4430739;32;20358;-59
2023/12/07 05:43:51;;;;;;;0.88;0.85;;;2.10;99.90;;;;;;4429639;32;20072;-58
2023/12/07 05:46:16;;;;;;;7.03;1.15;;;2.10;99.90;;;;;;4430590;32;20086;-61
2023/12/07 05:48:42;;;;;;;2.65;1.10;;;2.20;99.90;;;;;;4428095;32;20444;-60
2023/12/07 05:51:16;;;;;;;2.20;1.58;;;2.20;99.90;;;;;;4427019;32;20066;-62
2023/12/07 05:53:42;;;;;;;1.02;0.88;;;2.10;99.90;;;;;;4430185;32;20111;-60
2023/12/07 05:56:08;;;;;;;0.90;0.90;;;2.10;99.90;;;;;;4414958;32;20600;-61
2023/12/07 05:58:33;;;;;;;0.40;0.40;;;2.10;99.90;;;;;;4429727;32;20854;-60
2023/12/07 06:01:00;;;;;;;5.62;2.95;;;2.10;99.90;;;;;;4426648;32;20092;-57
2023/12/07 06:03:26;;;;;;;1.08;0.80;;;2.10;99.90;;;;;;4428517;32;20065;-58
2023/12/07 06:05:51;;;;;;;1.25;0.93;;;2.20;99.90;;;;;;4417465;32;20590;-59
2023/12/07 06:08:17;;;;;;;0.98;0.98;;;2.30;99.90;;;;;;4427319;32;20061;-58
2023/12/07 06:10:43;;;;;;;0.40;0.40;;;2.30;99.90;;;;;;4425134;32;20053;-57
2023/12/07 06:13:08;;;;;;;0.82;0.82;;;2.30;99.90;;;;;;4415341;32;20156;-58
2023/12/07 06:15:34;;;;;;;0.47;0.47;;;2.30;99.90;;;;;;4429402;32;20078;-60
2023/12/07 06:17:59;;;;;;;0.60;0.60;;;2.30;99.90;;;;;;4428442;32;20065;-59
2023/12/07 06:20:25;;;;;;;34.13;2.58;;;2.30;99.90;;;;;;4422609;32;20094;-58
2023/12/07 06:22:50;;;;;;;1.17;0.70;;;2.30;99.90;;;;;;4421011;32;20407;-58
2023/12/07 06:25:16;;;;;;;0.60;0.60;;;2.20;99.90;;;;;;4416295;32;20714;-57
2023/12/07 06:27:42;;;;;;;1.05;0.98;;;2.30;99.90;;;;;;4410947;32;20069;-59
2023/12/07 06:30:07;;;;;;;8.13;1.30;;;2.30;99.90;;;;;;4418948;32;20104;-58
2023/12/07 06:32:33;;;;;;;2.55;0.90;;;2.30;99.90;;;;;;4419620;32;20081;-59
2023/12/07 06:34:59;;;;;;;0.43;0.43;;;2.30;99.90;;;;;;4418743;32;20801;-60
2023/12/07 06:37:25;;;;;;;0.85;0.85;;;2.30;99.90;;;;;;4421401;32;20093;-59
2023/12/07 06:39:50;;;;;;;0.85;0.85;;;2.30;99.90;;;;;;4408958;32;20509;-59
2023/12/07 06:42:16;;;;;;;1.05;0.95;;;2.30;99.90;;;;;;4414545;32;20109;-60
2023/12/07 06:44:49;;;;;;;3.03;1.48;;;2.30;99.90;;;;;;4419806;32;20073;-60
2023/12/07 06:47:15;;;;;;;1.15;1.00;;;2.30;99.90;;;;;;4405192;32;20074;-58
2023/12/07 06:49:40;;;;;;;1.35;1.15;;;2.30;99.90;;;;;;4401688;32;22062;-59
2023/12/07 06:52:06;;;;;;;3.00;1.15;;;2.30;99.90;;;;;;4400810;32;20718;-59
2023/12/07 06:54:31;;;;;;;1.08;1.05;;;2.30;99.90;;;;;;4398704;32;20061;-59
2023/12/07 06:56:57;;;;;;;3.00;0.95;;;2.30;99.90;;;;;;4403327;32;20088;-58
2023/12/07 06:59:22;;;;;;;0.75;0.75;;;2.20;99.90;;;;;;4393632;32;22074;-57
2023/12/07 07:01:48;;;;;;;0.80;0.80;;;2.20;99.90;;;;;;4396167;32;20088;-60
2023/12/07 07:04:14;;;;;;;4.50;2.15;;;2.20;99.90;;;;;;4405969;32;20180;-60
2023/12/07 07:06:42;;;;;;;0.70;0.70;;;2.20;99.90;;;;;;4402521;32;21111;-61
2023/12/07 07:09:08;;;;;;;1.20;1.08;;;2.20;99.90;;;;;;4408512;32;21111;-60
2023/12/07 07:11:34;;;;;;;1.77;1.67;;;2.20;99.90;;;;;;4403056;32;20077;-61
2023/12/07 07:14:00;;;;;;;0.52;0.52;;;2.20;99.90;;;;;;4414055;32;20426;-60
2023/12/07 07:16:27;;;;;;;1.05;0.70;;;2.20;99.90;;;;;;4400944;32;20092;-58
2023/12/07 07:18:52;;;;;;;0.62;0.62;;;2.10;99.90;;;;;;4394980;32;20074;-59
2023/12/07 07:21:19;;;;;;;1.90;1.10;;;2.20;99.90;;;;;;4404790;32;21090;-57
2023/12/07 07:23:45;;;;;;;2.62;1.15;;;2.30;99.90;;;;;;4399335;32;20099;-59
2023/12/07 07:26:10;;;;;;;0.65;0.65;;;2.20;99.90;;;;;;4397834;32;20081;-58
2023/12/07 07:28:36;;;;;;;2.60;1.40;;;2.20;99.90;;;;;;4399613;32;20132;-59
2023/12/07 07:31:02;;;;;;;0.70;0.70;;;2.10;99.90;;;;;;4397679;32;20615;-58
2023/12/07 07:33:28;;;;;;;0.70;0.70;;;2.10;99.90;;;;;;4405675;32;20650;-61
2023/12/07 07:35:53;;;;;;;3.83;2.40;;;2.10;99.90;;;;;;4404592;32;20192;-60
2023/12/07 07:38:19;;;;;;;2.83;1.77;;;2.10;99.90;;;;;;4406720;32;20616;-60
2023/12/07 07:40:45;;;;;;;0.60;0.47;;;2.00;99.90;;;;;;4401913;32;20085;-58
2023/12/07 07:43:11;;;;;;;1.67;1.52;;;2.10;99.90;;;;;;4407073;32;20126;-59
2023/12/07 07:45:36;;;;;;;3.47;1.67;;;2.10;99.90;;;;;;4402480;32;20097;-60
2023/12/07 07:48:01;;;;;;;0.52;0.52;;;2.20;99.90;;;;;;4407277;32;20170;-59
2023/12/07 07:50:28;;;;;;;1.02;1.00;;;2.20;99.90;;;;;;4411898;32;20865;-58
2023/12/07 07:52:54;;;;;;;0.75;0.75;;;2.20;99.90;;;;;;4411947;32;20081;-57
2023/12/07 07:55:20;;;;;;;0.70;0.70;;;2.20;99.90;;;;;;4406829;32;20141;-59
2023/12/07 07:57:46;;;;;;;0.60;0.60;;;2.30;99.90;;;;;;4409918;32;21206;-59
2023/12/07 08:00:13;;;;;;;0.60;0.60;;;2.30;99.90;;;;;;4411337;32;20097;-59
2023/12/07 08:02:39;;;;;;;1.25;0.82;;;2.40;99.90;;;;;;4409076;32;20568;-61
2023/12/07 08:05:05;;;;;;;0.82;0.82;;;2.40;99.90;;;;;;4383828;32;20102;-60
2023/12/07 08:07:30;;;;;;;0.95;0.95;;;2.30;99.90;;;;;;4400376;32;20081;-59
2023/12/07 08:09:56;;;;;;;3.40;1.70;;;2.20;99.90;;;;;;4400285;32;20097;-59
2023/12/07 08:12:23;;;;;;;2.28;1.33;;;2.20;99.90;;;;;;4400366;32;20132;-61
2023/12/07 08:14:49;;;;;;;1.05;1.05;;;2.10;99.90;;;;;;4400119;32;20147;-57
2023/12/07 08:17:14;;;;;;;0.70;0.70;;;2.10;99.90;;;;;;4409021;32;20213;-62
2023/12/07 08:19:42;;;;;;;1.65;1.55;;;2.30;99.90;;;;;;4403062;32;20080;-60
2023/12/07 08:22:07;;;;;;;0.77;0.77;;;2.30;99.90;;;;;;4400355;32;20283;-61
2023/12/07 08:24:33;;;;;;;4.00;0.98;;;2.30;99.90;;;;;;4406510;32;21785;-60
2023/12/07 08:26:59;;;;;;;1.55;1.02;;;2.30;99.90;;;;;;4401135;32;20096;-61
2023/12/07 08:29:25;;;;;;;1.77;1.15;;;2.30;99.90;;;;;;4401756;32;20161;-60
2023/12/07 08:31:51;;;;;;;0.90;0.90;;;2.30;99.90;;;;;;4403219;32;20073;-61
2023/12/07 08:34:16;;;;;;;2.00;1.55;;;2.30;99.90;;;;;;4398019;32;20096;-60
2023/12/07 08:36:42;;;;;;;2.65;1.95;;;2.40;99.90;;;;;;4403928;32;20806;-57
2023/12/07 08:39:09;;;;;;;0.90;0.90;;;2.40;99.90;;;;;;4405705;32;20095;-61
2023/12/07 08:41:36;;;;;;;0.50;0.50;;;2.30;99.90;;;;;;4395280;32;20104;-60
2023/12/07 08:44:02;;;;;;;1.10;1.08;;;2.40;99.90;;;;;;4402627;32;20194;-59
2023/12/07 08:46:27;;;;;;;3.58;1.85;;;2.40;99.90;;;;;;4405582;32;20082;-58
2023/12/07 08:48:53;;;;;;;0.88;0.88;;;2.40;99.90;;;;;;4408303;32;20068;-60
2023/12/07 08:51:19;;;;;;;0.68;0.68;;;2.50;99.90;;;;;;4385492;32;20188;-59
2023/12/07 08:53:45;;;;;;;0.73;0.73;;;2.60;99.90;;;;;;4392121;32;20806;-59
2023/12/07 08:56:12;;;;;;;0.88;0.75;;;2.50;99.90;;;;;;4398749;32;20344;-60
2023/12/07 08:58:38;;;;;;;0.50;0.50;;;2.40;99.90;;;;;;4408834;32;20960;-60
2023/12/07 09:01:05;;;;;;;1.30;1.20;;;2.40;99.90;;;;;;4404583;32;20053;-60
2023/12/07 09:03:31;;;;;;;1.35;1.23;;;2.50;99.90;;;;;;4407110;32;20101;-60
2023/12/07 09:05:57;;;;;;;1.05;1.05;;;2.40;99.90;;;;;;4400967;32;20160;-60
2023/12/07 09:08:23;;;;;;;0.88;0.88;;;2.50;99.90;;;;;;4395916;32;20096;-60
2023/12/07 09:10:50;;;;;;;1.05;1.02;;;2.40;99.90;;;;;;4399837;32;20929;-60
2023/12/07 09:13:18;;;;;;;1.95;1.55;;;2.40;99.90;;;;;;4394681;32;20093;-61
2023/12/07 09:15:43;;;;;;;0.90;0.90;;;2.50;99.90;;;;;;4398978;32;21063;-61
2023/12/07 09:18:10;;;;;;;1.15;1.12;;;2.50;99.90;;;;;;4404028;32;20076;-60
2023/12/07 09:20:37;;;;;;;5.97;1.75;;;2.40;99.90;;;;;;4398280;32;21858;-61
2023/12/07 09:23:03;;;;;;;2.25;1.25;;;2.50;99.90;;;;;;4402613;32;20152;-61
2023/12/07 09:25:30;;;;;;;0.93;0.93;;;2.50;99.90;;;;;;4397799;32;20089;-61
2023/12/07 09:27:56;;;;;;;0.85;0.85;;;2.60;99.90;;;;;;4398681;32;20221;-60
2023/12/07 09:30:21;;;;;;;0.98;0.98;;;2.50;99.90;;;;;;4402321;32;20108;-60
2023/12/07 09:32:47;;;;;;;1.08;0.77;;;2.50;99.90;;;;;;4402850;32;20151;-62
2023/12/07 09:35:16;;;;;;;1.30;0.98;;;2.60;99.90;;;;;;4407555;32;20642;-60
2023/12/07 09:37:41;;;;;;;4.28;1.98;;;2.50;99.90;;;;;;4403070;32;20076;-60
2023/12/07 09:40:07;;;;;;;0.98;0.98;;;2.50;99.90;;;;;;4399180;32;20356;-61
2023/12/07 09:42:33;;;;;;;1.02;0.77;;;2.40;99.90;;;;;;4396933;32;20093;-61
2023/12/07 09:44:59;;;;;;;0.70;0.70;;;2.50;99.90;;;;;;4389543;32;20248;-61
2023/12/07 09:47:29;;;;;;;2.22;1.60;;;2.50;99.90;;;;;;4397561;32;20199;-61
2023/12/07 09:49:55;;;;;;;3.17;1.62;;;2.50;99.90;;;;;;4401397;32;20135;-60
2023/12/07 09:52:22;;;;;;;2.37;1.55;;;2.50;99.90;;;;;;4405176;32;20077;-61
2023/12/07 09:54:50;;;;;;;0.95;0.95;;;2.50;99.90;;;;;;4403070;32;20492;-60
2023/12/07 09:57:16;;;;;;;1.65;1.55;;;2.50;99.90;;;;;;4410527;32;20069;-61
2023/12/07 09:59:41;;;;;;;7.43;1.27;;;2.40;99.90;;;;;;4404943;32;20076;-60
2023/12/07 10:02:08;;;;;;;1.77;1.52;;;2.40;99.90;;;;;;4404569;32;20846;-61
2023/12/07 10:04:33;;;;;;;0.82;0.82;;;2.40;99.90;;;;;;4404856;32;20549;-58
2023/12/07 10:06:59;;;;;;;5.57;2.47;;;2.50;99.90;;;;;;4406987;32;20089;-61
2023/12/07 10:09:25;;;;;;;0.62;0.62;;;2.50;99.90;;;;;;4404387;32;20165;-61
2023/12/07 10:12:02;;;;;;;0.50;0.50;;;2.50;99.90;;;;;;4397365;32;20093;-60
2023/12/07 10:14:28;;;;;;;2.10;1.87;;;2.50;99.90;;;;;;4406390;32;20163;-61
2023/12/07 10:16:55;;;;;;;0.73;0.73;;;2.50;99.90;;;;;;4392444;32;20733;-60
2023/12/07 10:19:21;;;;;;;1.25;1.15;;;2.50;99.90;;;;;;4388956;32;20160;-61
2023/12/07 10:21:50;;;;;;;0.80;0.80;;;2.50;99.90;;;;;;4411324;32;20097;-61
2023/12/07 10:24:17;;;;;;;4.20;1.12;;;2.50;99.90;;;;;;4403947;32;20069;-61
2023/12/07 10:26:44;;;;;;;1.37;1.15;;;2.60;99.90;;;;;;4387683;32;20902;-59
2023/12/07 10:29:10;;;;;;;0.50;0.50;;;2.60;99.90;;;;;;4398621;32;20096;-61
2023/12/07 10:31:37;;;;;;;0.95;0.95;;;2.50;99.90;;;;;;4395771;32;22483;-60
2023/12/07 10:34:04;;;;;;;6.60;2.55;;;2.50;99.90;;;;;;4395227;32;20073;-57
2023/12/07 10:36:29;;;;;;;1.90;1.37;;;2.60;99.90;;;;;;4400999;32;20115;-60
2023/12/07 10:38:55;;;;;;;0.95;0.95;;;2.60;99.90;;;;;;4391319;32;20557;-60
2023/12/07 10:41:23;;;;;;;0.70;0.70;;;2.60;99.90;;;;;;4401889;32;20089;-61
2023/12/07 10:43:57;;;;;;;1.02;0.62;;;2.60;99.90;;;;;;4399706;32;20085;-61
2023/12/07 10:46:23;;;;;;;0.68;0.68;;;2.70;99.90;;;;;;4399840;32;20764;-62
2023/12/07 10:48:54;;;;;;;2.40;1.25;;;2.70;99.90;;;;;;4394340;32;20110;-61
2023/12/07 10:51:41;;;;;;;0.57;0.57;;;2.70;99.90;;;;;;4398252;32;20073;-60
2023/12/07 10:54:08;;;;;;;0.90;0.90;;;2.70;99.90;;;;;;4404553;32;20147;-61
2023/12/07 10:56:40;;;;;;;1.12;1.10;;;2.80;99.90;;;;;;4399421;32;20073;-61
2023/12/07 10:59:10;;;;;;;0.47;0.47;;;2.70;99.90;;;;;;4395649;32;20736;-60
2023/12/07 11:01:38;;;;;;;1.65;1.25;;;2.70;99.90;;;;;;4398728;32;20882;-61
2023/12/07 11:04:05;;;;;;;0.77;0.77;;;2.70;99.90;;;;;;4400830;32;21752;-59
2023/12/07 11:06:31;;;;;;;0.60;0.60;;;2.70;99.90;;;;;;4404445;32;21022;-61
2023/12/07 11:09:01;;;;;;;1.85;1.40;;;2.70;99.90;;;;;;4400274;32;20068;-62
2023/12/07 11:11:40;;;;;;;1.10;0.95;;;2.80;99.90;;;;;;4396047;32;20195;-61
2023/12/07 11:14:07;;;;;;;0.77;0.75;;;2.70;99.90;;;;;;4399833;32;20093;-62
2023/12/07 11:16:35;;;;;;;0.65;0.65;;;2.80;99.90;;;;;;4383575;32;20636;-59
2023/12/07 11:19:01;;;;;;;0.95;0.95;;;2.80;99.90;;;;;;4390102;32;20100;-62
2023/12/07 11:21:27;;;;;;;7.07;2.03;;;2.70;99.90;;;;;;4401127;32;20207;-60
2023/12/07 11:23:54;;;;;;;0.90;0.90;;;2.80;99.90;;;;;;4396657;32;20089;-62
2023/12/07 11:26:23;;;;;;;1.67;0.90;;;2.80;99.90;;;;;;4392869;32;20715;-61
2023/12/07 11:28:49;;;;;;;0.98;0.98;;;2.80;99.90;;;;;;4396102;32;20962;-60
2023/12/07 11:31:15;;;;;;;1.50;1.27;;;2.70;99.90;;;;;;4405288;32;20101;-60
2023/12/07 11:33:42;;;;;;;1.90;1.20;;;2.70;99.90;;;;;;4403363;32;20097;-61
2023/12/07 11:36:09;;;;;;;3.33;1.30;;;2.80;99.90;;;;;;4409128;32;20939;-62
2023/12/07 11:38:37;;;;;;;0.60;0.60;;;2.80;99.90;;;;;;4404175;32;20089;-60
2023/12/07 11:41:03;;;;;;;2.10;1.67;;;2.80;99.90;;;;;;4391415;32;20089;-60
2023/12/07 11:43:41;;;;;;;0.80;0.80;;;2.80;99.90;;;;;;4412766;32;20082;-60
2023/12/07 11:46:07;;;;;;;2.17;1.85;;;2.80;99.90;;;;;;4419743;32;20078;-62
2023/12/07 11:48:32;;;;;;;0.55;0.55;;;2.80;99.90;;;;;;4418549;32;20255;-61
2023/12/07 11:51:06;;;;;;;3.42;1.17;;;2.80;99.90;;;;;;4406228;32;107983;-61
2023/12/07 11:53:34;;;;;;;1.52;1.42;;;2.80;99.90;;;;;;4407278;32;20114;-60
2023/12/07 11:56:04;;;;;;;1.35;1.25;;;2.80;99.90;;;;;;4405988;32;20770;-61
2023/12/07 11:58:31;;;;;;;1.52;1.42;;;2.70;99.90;;;;;;4404438;32;20082;-61
2023/12/07 12:00:57;;;;;;;0.80;0.80;;;2.80;99.90;;;;;;4411940;32;20046;-61
2023/12/07 12:03:25;;;;;;;0.70;0.70;;;2.70;99.90;;;;;;4412200;32;20100;-60
2023/12/07 12:05:51;;;;;;;1.90;1.58;;;2.70;99.90;;;;;;4412417;32;20065;-61
2023/12/07 12:08:18;;;;;;;0.77;0.77;;;2.80;99.90;;;;;;4407743;32;20172;-61
2023/12/07 12:10:44;;;;;;;3.72;1.85;;;2.80;99.90;;;;;;4411253;32;20168;-60
2023/12/07 12:13:09;;;;;;;0.70;0.70;;;2.80;99.90;;;;;;4410109;32;20596;-59
2023/12/07 12:15:35;;;;;;;6.25;1.83;;;2.70;99.90;;;;;;4411454;32;20424;-62
2023/12/07 12:18:01;;;;;;;0.90;0.90;;;2.70;99.90;;;;;;4418166;32;20540;-61
2023/12/07 12:20:27;;;;;;;0.82;0.82;;;2.60;99.90;;;;;;4412839;32;20142;-62
2023/12/07 12:22:53;;;;;;;1.00;0.98;;;2.70;99.90;;;;;;4405498;32;20101;-61
2023/12/07 12:25:23;;;;;;;1.55;1.33;;;2.70;99.90;;;;;;4405642;32;20069;-61
2023/12/07 12:27:53;;;;;;;3.03;1.23;;;2.70;99.90;;;;;;4408656;32;20151;-62
2023/12/07 12:30:19;;;;;;;1.67;1.58;;;2.70;99.90;;;;;;4397401;32;20340;-62
2023/12/07 12:32:45;;;;;;;2.92;1.33;;;2.70;99.90;;;;;;4405585;32;20269;-62
2023/12/07 12:35:11;;;;;;;0.98;0.98;;;2.80;99.90;;;;;;4404982;32;20509;-63
2023/12/07 12:37:39;;;;;;;0.70;0.70;;;2.80;99.90;;;;;;4407614;32;20703;-62
2023/12/07 12:40:06;;;;;;;3.40;1.42;;;2.80;99.90;;;;;;4407687;32;20682;-61
2023/12/07 12:42:33;;;;;;;3.17;2.20;;;2.80;99.90;;;;;;4412856;32;21014;-58
2023/12/07 12:44:58;;;;;;;2.25;1.33;;;2.90;99.90;;;;;;4396117;32;20065;-59
2023/12/07 12:47:24;;;;;;;0.93;0.93;;;2.90;99.90;;;;;;4372215;32;20152;-62
2023/12/07 12:49:50;;;;;;;4.90;2.17;;;2.90;99.90;;;;;;4419728;32;20389;-62
2023/12/07 12:52:16;;;;;;;3.92;1.92;;;2.90;99.90;;;;;;4419677;32;20597;-63